createdAt,value
2022-10-04T00:04:45.811Z,96289.47
2022-10-04T00:09:50.238Z,96270.94
2022-10-04T00:14:54.398Z,96262.97
2022-10-04T00:19:58.482Z,96272.75
2022-10-04T00:25:19.530Z,96250.84
2022-10-04T00:30:24.749Z,96258.91
2022-10-04T00:35:50.503Z,96258.94
2022-10-04T00:40:57.146Z,96246.69
2022-10-04T00:46:02.920Z,96247.75
2022-10-04T00:51:15.671Z,96237.22
2022-10-04T00:56:24.692Z,96209.75
2022-10-04T01:01:29.121Z,96203.50
2022-10-04T01:06:33.637Z,96211.47
2022-10-04T01:11:37.862Z,96210.66
2022-10-04T01:16:40.476Z,96187.81
2022-10-04T01:21:44.493Z,96169.53
2022-10-04T01:26:48.655Z,96141.47
2022-10-04T01:31:52.823Z,96151.19
2022-10-04T01:36:57.327Z,96128.25
2022-10-04T01:42:05.001Z,96116.88
2022-10-04T01:47:10.789Z,96123.06
2022-10-04T01:52:17.437Z,96110.72
2022-10-04T01:57:23.766Z,96119.59
2022-10-04T02:02:27.038Z,96104.00
2022-10-04T02:07:30.851Z,96106.66
2022-10-04T02:12:35.268Z,96118.25
2022-10-04T02:17:40.264Z,96127.19
2022-10-04T02:22:44.186Z,96132.56
2022-10-04T02:27:48.286Z,96140.50
2022-10-04T02:33:00.590Z,96136.94
2022-10-04T02:38:08.852Z,96122.88
2022-10-04T02:43:15.487Z,96114.19
2022-10-04T02:48:33.396Z,96101.84
2022-10-04T02:53:45.818Z,96092.22
2022-10-04T02:58:50.027Z,96079.03
2022-10-04T03:03:52.695Z,96059.75
2022-10-04T03:08:58.022Z,96080.06
2022-10-04T03:14:05.004Z,96069.47
2022-10-04T03:19:08.187Z,96060.78
2022-10-04T03:24:13.269Z,96062.50
2022-10-04T03:29:19.283Z,96091.75
2022-10-04T03:34:24.977Z,96093.53
2022-10-04T03:39:29.754Z,96096.19
2022-10-04T03:44:33.773Z,96109.47
2022-10-04T03:49:38.124Z,96116.56
2022-10-04T03:54:41.079Z,96123.03
2022-10-04T03:59:45.016Z,96110.63
2022-10-04T04:04:53.454Z,96107.97
2022-10-04T04:10:01.670Z,96125.78
2022-10-04T04:15:08.062Z,96115.16
2022-10-04T04:20:16.836Z,96095.88
2022-10-04T04:25:23.502Z,96080.19
2022-10-04T04:30:27.511Z,96072.28
2022-10-04T04:35:32.442Z,96064.31
2022-10-04T04:40:35.239Z,96062.47
2022-10-04T04:45:39.290Z,96061.81
2022-10-04T04:50:42.170Z,96051.25
2022-10-04T04:56:03.289Z,96056.75
2022-10-04T05:01:18.091Z,96046.13
2022-10-04T05:06:25.667Z,96040.91
2022-10-04T05:11:30.907Z,96055.06
2022-10-04T05:16:38.815Z,96039.19
2022-10-04T05:21:44.318Z,96054.38
2022-10-04T05:26:50.923Z,96068.53
2022-10-04T05:32:02.712Z,96066.78
2022-10-04T05:37:24.107Z,96064.94
2022-10-04T05:42:33.914Z,96067.72
2022-10-04T05:47:37.864Z,96042.28
2022-10-04T05:52:41.116Z,96045.91
2022-10-04T05:57:50.711Z,96045.81
2022-10-04T06:03:09.335Z,96029.16
2022-10-04T06:08:18.248Z,96020.28
2022-10-04T06:13:33.474Z,96031.81
2022-10-04T06:18:49.054Z,96023.78
2022-10-04T06:23:57.664Z,96034.28
2022-10-04T06:29:03.120Z,96008.66
2022-10-04T06:34:21.998Z,96006.91
2022-10-04T06:39:37.452Z,96001.59
2022-10-04T06:45:06.122Z,96010.22
2022-10-04T06:50:20.209Z,96003.13
2022-10-04T06:55:47.056Z,95986.06
2022-10-04T07:00:51.027Z,95965.66
2022-10-04T07:05:56.791Z,95945.31
2022-10-04T07:11:01.777Z,95952.38
2022-10-04T07:16:07.629Z,95911.44
2022-10-04T07:21:15.643Z,95938.00
2022-10-04T07:26:23.889Z,95866.88
2022-10-04T07:31:28.770Z,95820.47
2022-10-04T07:36:41.107Z,95816.63
2022-10-04T07:41:50.841Z,95750.63
2022-10-04T07:46:56.457Z,95741.41
2022-10-04T07:52:19.370Z,95749.69
2022-10-04T07:57:26.007Z,95748.44
2022-10-04T08:02:40.779Z,95720.50
2022-10-04T08:08:00.680Z,95662.66
2022-10-04T08:13:07.900Z,95617.53
2022-10-04T08:18:24.248Z,95576.28
2022-10-04T08:23:55.641Z,95585.00
2022-10-04T08:29:23.759Z,95508.53
2022-10-04T08:34:34.641Z,95535.91
2022-10-04T08:39:49.815Z,95509.44
2022-10-04T08:45:25.105Z,95522.63
2022-10-04T08:51:01.570Z,95457.81
2022-10-04T08:56:11.332Z,95504.03
2022-10-04T09:01:29.089Z,95480.41
2022-10-04T09:06:42.579Z,95503.72
2022-10-04T09:11:53.810Z,95517.94
2022-10-04T09:17:00.587Z,95529.31
2022-10-04T09:22:18.299Z,95611.63
2022-10-04T09:27:54.091Z,95599.47
2022-10-04T09:33:21.619Z,95648.47
2022-10-04T09:38:40.538Z,95702.44
2022-10-04T09:44:12.956Z,95825.63
2022-10-04T09:49:30.500Z,95865.13
2022-10-04T09:55:14.448Z,95965.84
2022-10-04T10:00:24.702Z,96153.78
2022-10-04T10:05:37.691Z,96308.88
2022-10-04T10:11:04.362Z,96420.28
2022-10-04T10:16:20.112Z,96579.41
2022-10-04T10:21:38.250Z,96736.28
2022-10-04T10:26:56.123Z,96882.06
2022-10-04T10:32:11.561Z,97029.69
2022-10-04T10:37:18.783Z,97162.72
2022-10-04T10:42:39.109Z,97312.19
2022-10-04T10:47:49.203Z,97508.34
2022-10-04T10:53:17.406Z,97681.06
2022-10-04T10:58:54.719Z,97873.25
2022-10-04T11:04:14.480Z,98006.50
2022-10-04T11:09:29.979Z,98142.81
2022-10-04T11:14:49.625Z,98262.81
2022-10-04T11:20:43.360Z,98448.34
2022-10-04T11:25:58.087Z,98529.53
2022-10-04T11:31:41.592Z,98651.56
2022-10-04T11:37:01.732Z,98798.84
2022-10-04T11:42:14.015Z,98881.06
2022-10-04T11:47:29.849Z,98977.75
2022-10-04T11:52:50.159Z,99061.09
2022-10-04T11:57:57.051Z,99151.66
2022-10-04T12:03:23.223Z,99245.66
2022-10-04T12:08:34.131Z,99329.16
2022-10-04T12:13:50.509Z,99412.59
2022-10-04T12:19:47.033Z,99529.94
2022-10-04T12:25:28.015Z,99631.19
2022-10-04T12:30:42.384Z,99735.25
2022-10-04T12:35:57.783Z,99817.94
2022-10-04T12:41:05.577Z,99926.47
2022-10-04T12:46:22.070Z,99994.97
2022-10-04T12:51:39.411Z,100077.72
2022-10-04T12:56:47.650Z,100113.34
2022-10-04T13:01:57.944Z,100197.16
2022-10-04T13:07:33.097Z,100239.81
2022-10-04T13:13:03.018Z,100294.13
2022-10-04T13:18:19.291Z,100333.13
2022-10-04T13:23:34.292Z,100372.09
2022-10-04T13:28:43.532Z,100345.75
2022-10-04T13:33:55.930Z,100359.06
2022-10-04T13:39:31.530Z,100371.53
2022-10-04T13:44:47.813Z,100396.47
2022-10-04T13:50:05.611Z,100432.03
2022-10-04T13:55:39.733Z,100464.09
2022-10-04T14:00:55.564Z,100443.69
2022-10-04T14:06:38.932Z,100474.00
2022-10-04T14:11:54.856Z,100443.81
2022-10-04T14:17:22.766Z,100471.88
2022-10-04T14:22:51.537Z,100471.25
2022-10-04T14:28:16.882Z,100497.06
2022-10-04T14:33:42.877Z,100496.19
2022-10-04T14:39:01.103Z,100522.81
2022-10-04T14:44:45.204Z,100563.63
2022-10-04T14:50:02.201Z,100580.25
2022-10-04T14:55:26.181Z,100580.25
2022-10-04T15:00:31.338Z,100582.03
2022-10-04T15:05:59.541Z,100576.38
2022-10-04T15:11:06.780Z,100564.47
2022-10-04T15:16:16.034Z,100569.91
2022-10-04T15:21:33.681Z,100551.66
2022-10-04T15:26:51.554Z,100528.84
2022-10-04T15:32:05.141Z,100524.41
2022-10-04T15:37:20.462Z,100517.94
2022-10-04T15:42:25.929Z,100507.09
2022-10-04T15:47:31.940Z,100496.25
2022-10-04T15:52:54.462Z,100502.31
2022-10-04T15:58:24.584Z,100503.97
2022-10-04T16:03:35.789Z,100485.13
2022-10-04T16:08:57.795Z,100469.06
2022-10-04T16:14:09.663Z,100472.44
2022-10-04T16:19:23.712Z,100475.75
2022-10-04T16:24:40.406Z,100489.72
2022-10-04T16:29:50.907Z,100475.06
2022-10-04T16:35:08.294Z,100462.34
2022-10-04T16:40:27.147Z,100453.28
2022-10-04T16:45:48.812Z,100456.41
2022-10-04T16:51:02.526Z,100435.78
2022-10-04T16:56:15.191Z,100434.59
2022-10-04T17:01:56.897Z,100425.38
2022-10-04T17:07:00.967Z,100409.16
2022-10-04T17:12:14.748Z,100416.16
2022-10-04T17:17:24.607Z,100418.41
2022-10-04T17:22:33.628Z,100405.88
2022-10-04T17:27:48.352Z,100412.63
2022-10-04T17:33:13.999Z,100400.03
2022-10-04T17:38:20.615Z,100379.72
2022-10-04T17:43:29.980Z,100352.25
2022-10-04T17:48:59.719Z,100332.56
2022-10-04T17:54:22.910Z,100296.69
2022-10-04T17:59:30.852Z,100238.75
2022-10-04T18:04:37.408Z,100200.66
2022-10-04T18:09:43.346Z,100153.63
2022-10-04T18:14:50.991Z,100117.22
2022-10-04T18:20:00.796Z,100096.00
2022-10-04T18:25:13.928Z,100050.59
2022-10-04T18:30:18.756Z,100020.50
2022-10-04T18:35:27.298Z,99989.59
2022-10-04T18:40:34.988Z,99962.16
2022-10-04T18:45:37.559Z,99927.50
2022-10-04T18:50:44.747Z,99908.03
2022-10-04T18:55:54.394Z,99880.41
2022-10-04T19:01:24.880Z,99842.22
2022-10-04T19:06:31.319Z,99803.25
2022-10-04T19:11:37.990Z,99773.81
2022-10-04T19:16:44.771Z,99735.81
2022-10-04T19:21:55.849Z,99689.81
2022-10-04T19:27:01.822Z,99660.69
2022-10-04T19:32:06.694Z,99640.13
2022-10-04T19:37:15.632Z,99584.50
2022-10-04T19:42:20.266Z,99553.44
2022-10-04T19:47:35.268Z,99520.59
2022-10-04T19:52:44.402Z,99466.75
2022-10-04T19:57:51.046Z,99421.84
2022-10-04T20:02:53.573Z,99414.03
2022-10-04T20:08:04.700Z,99379.47
2022-10-04T20:13:23.410Z,99360.81
2022-10-04T20:19:02.248Z,99322.66
2022-10-04T20:24:16.675Z,99282.91
2022-10-04T20:30:06.301Z,99253.72
2022-10-04T20:35:11.576Z,99205.13
2022-10-04T20:40:44.168Z,99167.81
2022-10-04T20:45:47.702Z,99115.97
2022-10-04T20:50:50.614Z,99074.50
2022-10-04T20:56:11.944Z,99026.06
2022-10-04T21:01:40.015Z,98996.13
2022-10-04T21:06:52.297Z,98970.56
2022-10-04T21:11:57.320Z,98929.16
2022-10-04T21:17:03.015Z,98896.63
2022-10-04T21:22:07.157Z,98870.16
2022-10-04T21:27:12.471Z,98833.09
2022-10-04T21:32:15.008Z,98780.31
2022-10-04T21:37:18.267Z,98734.47
2022-10-04T21:42:22.256Z,98687.00
2022-10-04T21:47:24.974Z,98649.16
2022-10-04T21:52:27.531Z,98612.13
2022-10-04T21:57:35.480Z,98562.03
2022-10-04T22:02:38.428Z,98528.53
2022-10-04T22:07:41.020Z,98490.69
2022-10-04T22:12:45.220Z,98444.84
2022-10-04T22:17:47.862Z,98416.69
2022-10-04T22:22:50.440Z,98355.13
2022-10-04T22:27:55.188Z,98332.16
2022-10-04T22:32:59.347Z,98267.13
2022-10-04T22:38:01.931Z,98212.59
2022-10-04T22:43:12.614Z,98180.91
2022-10-04T22:48:17.623Z,98072.75
2022-10-04T22:53:22.515Z,98021.75
2022-10-04T22:58:27.904Z,97990.06
2022-10-04T23:03:32.626Z,97966.38
2022-10-04T23:08:35.186Z,97918.88
2022-10-04T23:13:39.252Z,97910.97
2022-10-04T23:18:41.834Z,97874.06
2022-10-04T23:23:44.423Z,97836.22
2022-10-04T23:28:48.346Z,97810.72
2022-10-04T23:33:51.401Z,97787.91
2022-10-04T23:38:57.219Z,97754.50
2022-10-04T23:44:01.171Z,97721.09
2022-10-04T23:49:03.896Z,97656.88
2022-10-04T23:54:07.073Z,97627.88
2022-10-04T23:59:15.556Z,97607.72
